createdAt,value
2022-12-03T00:00:59.196Z,3.33
2022-12-03T00:03:28.236Z,3.41
2022-12-03T00:05:56.571Z,3.50
2022-12-03T00:08:24.559Z,3.57
2022-12-03T00:10:52.408Z,3.60
2022-12-03T00:13:20.375Z,3.63
2022-12-03T00:15:48.418Z,3.63
2022-12-03T00:18:16.417Z,3.62
2022-12-03T00:20:44.283Z,3.62
2022-12-03T00:23:12.136Z,3.64
2022-12-03T00:25:40.028Z,3.68
2022-12-03T00:28:07.890Z,3.69
2022-12-03T00:30:35.967Z,3.69
2022-12-03T00:33:03.929Z,3.68
2022-12-03T00:35:31.747Z,3.65
2022-12-03T00:37:59.662Z,3.62
2022-12-03T00:40:27.635Z,3.56
2022-12-03T00:42:55.659Z,3.50
2022-12-03T00:45:23.676Z,3.45
2022-12-03T00:47:51.955Z,3.40
2022-12-03T00:50:19.923Z,3.33
2022-12-03T00:52:47.880Z,3.29
2022-12-03T00:55:16.678Z,3.26
2022-12-03T00:57:44.643Z,3.22
2022-12-03T01:00:13.528Z,3.17
2022-12-03T01:02:41.358Z,3.13
2022-12-03T01:05:09.534Z,3.09
2022-12-03T01:07:37.581Z,3.06
2022-12-03T01:10:06.133Z,3.01
2022-12-03T01:12:33.944Z,2.97
2022-12-03T01:15:01.873Z,2.93
2022-12-03T01:17:29.834Z,2.92
2022-12-03T01:19:59.177Z,2.90
2022-12-03T01:22:27.719Z,2.89
2022-12-03T01:24:55.751Z,2.87
2022-12-03T01:27:23.970Z,2.85
2022-12-03T01:29:51.891Z,2.84
2022-12-03T01:32:19.940Z,2.82
2022-12-03T01:34:49.619Z,2.80
2022-12-03T01:37:18.508Z,2.79
2022-12-03T01:39:46.685Z,2.79
2022-12-03T01:42:19.769Z,2.78
2022-12-03T01:44:48.460Z,2.75
2022-12-03T01:47:18.244Z,2.74
2022-12-03T01:50:12.252Z,2.71
2022-12-03T01:52:40.838Z,2.69
2022-12-03T01:55:13.928Z,2.65
2022-12-03T01:57:46.479Z,2.60
2022-12-03T02:00:18.572Z,2.57
2022-12-03T02:02:48.479Z,2.54
2022-12-03T02:05:18.190Z,2.51
2022-12-03T02:07:46.527Z,2.49
2022-12-03T02:10:16.485Z,2.45
2022-12-03T02:12:47.839Z,2.43
2022-12-03T02:15:16.011Z,2.42
2022-12-03T02:17:44.284Z,2.41
2022-12-03T02:20:12.768Z,2.43
2022-12-03T02:22:45.376Z,2.47
2022-12-03T02:25:32.577Z,2.54
2022-12-03T02:28:01.051Z,2.62
2022-12-03T02:30:29.933Z,2.69
2022-12-03T02:32:58.456Z,2.76
2022-12-03T02:35:28.133Z,2.81
2022-12-03T02:38:02.138Z,2.86
2022-12-03T02:40:32.570Z,2.91
2022-12-03T02:43:02.685Z,2.98
2022-12-03T02:45:32.813Z,3.04
2022-12-03T02:48:06.617Z,3.06
2022-12-03T02:50:40.416Z,3.00
2022-12-03T02:53:10.746Z,2.96
2022-12-03T02:55:39.324Z,2.91
2022-12-03T02:58:07.299Z,2.88
2022-12-03T03:00:35.932Z,2.87
2022-12-03T03:03:04.796Z,2.86
2022-12-03T03:05:33.459Z,2.83
2022-12-03T03:08:01.821Z,2.79
2022-12-03T03:10:30.737Z,2.77
2022-12-03T03:12:58.797Z,2.73
2022-12-03T03:15:26.665Z,2.71
2022-12-03T03:17:54.531Z,2.70
2022-12-03T03:20:22.615Z,2.70
2022-12-03T03:22:50.580Z,2.70
2022-12-03T03:25:21.255Z,2.68
2022-12-03T03:27:49.180Z,2.67
2022-12-03T03:30:17.204Z,2.67
2022-12-03T03:32:45.114Z,2.64
2022-12-03T03:35:14.842Z,2.63
2022-12-03T03:37:42.672Z,2.62
2022-12-03T03:40:10.974Z,2.62
2022-12-03T03:42:39.351Z,2.60
2022-12-03T03:45:08.242Z,2.57
2022-12-03T03:47:36.411Z,2.54
2022-12-03T03:50:05.064Z,2.54
2022-12-03T03:52:33.072Z,2.54
2022-12-03T03:55:01.041Z,2.51
2022-12-03T03:57:28.860Z,2.47
2022-12-03T03:59:57.998Z,2.47
2022-12-03T04:02:27.203Z,2.48
2022-12-03T04:04:55.426Z,2.50
2022-12-03T04:07:23.545Z,2.52
2022-12-03T04:09:51.516Z,2.54
2022-12-03T04:12:37.896Z,2.55
2022-12-03T04:15:06.197Z,2.57
2022-12-03T04:17:34.163Z,2.60
2022-12-03T04:20:01.924Z,2.61
2022-12-03T04:22:41.989Z,2.63
2022-12-03T04:25:28.999Z,2.65
2022-12-03T04:28:15.512Z,2.66
2022-12-03T04:30:43.420Z,2.67
2022-12-03T04:33:30.185Z,2.67
2022-12-03T04:35:58.100Z,2.68
2022-12-03T04:38:26.021Z,2.69
2022-12-03T04:41:04.439Z,2.70
2022-12-03T04:43:55.549Z,2.71
2022-12-03T04:46:23.570Z,2.71
2022-12-03T04:48:51.588Z,2.71
2022-12-03T04:51:19.557Z,2.71
2022-12-03T04:53:47.425Z,2.71
2022-12-03T04:56:15.394Z,2.71
2022-12-03T04:58:45.103Z,2.69
2022-12-03T05:01:12.968Z,2.68
2022-12-03T05:03:41.450Z,2.68
2022-12-03T05:06:09.423Z,2.68
2022-12-03T05:08:37.290Z,2.68
2022-12-03T05:11:05.255Z,2.69
2022-12-03T05:13:33.231Z,2.70
2022-12-03T05:16:01.594Z,2.70
2022-12-03T05:18:29.468Z,2.69
2022-12-03T05:20:57.444Z,2.70
2022-12-03T05:23:25.307Z,2.74
2022-12-03T05:25:53.377Z,2.79
2022-12-03T05:28:23.291Z,2.81
2022-12-03T05:30:51.662Z,2.83
2022-12-03T05:33:20.665Z,2.85
2022-12-03T05:35:48.636Z,2.89
2022-12-03T05:38:16.447Z,2.92
2022-12-03T05:40:44.534Z,2.97
2022-12-03T05:43:12.438Z,3.05
2022-12-03T05:45:41.419Z,3.14
2022-12-03T05:48:11.041Z,3.24
2022-12-03T05:50:39.886Z,3.32
2022-12-03T05:53:17.528Z,3.38
2022-12-03T05:55:45.502Z,3.45
2022-12-03T05:58:13.574Z,3.50
2022-12-03T06:00:43.004Z,3.47
2022-12-03T06:03:11.390Z,3.48
2022-12-03T06:05:39.757Z,3.48
2022-12-03T06:08:07.795Z,3.49
2022-12-03T06:10:35.730Z,3.51
2022-12-03T06:13:03.637Z,3.52
2022-12-03T06:15:31.720Z,3.50
2022-12-03T06:17:59.679Z,3.48
2022-12-03T06:20:27.757Z,3.45
2022-12-03T06:22:55.721Z,3.43
2022-12-03T06:25:23.692Z,3.36
2022-12-03T06:27:51.565Z,3.31
2022-12-03T06:30:19.527Z,3.27
2022-12-03T06:32:47.394Z,3.25
2022-12-03T06:35:15.475Z,3.22
2022-12-03T06:37:43.527Z,3.19
2022-12-03T06:40:11.864Z,3.18
2022-12-03T06:42:39.897Z,3.18
2022-12-03T06:45:08.701Z,3.19
2022-12-03T06:47:37.061Z,3.18
2022-12-03T06:50:06.155Z,3.20
2022-12-03T06:52:34.120Z,3.21
2022-12-03T06:55:02.089Z,3.21
2022-12-03T06:57:30.064Z,3.22
2022-12-03T06:59:58.028Z,3.23
2022-12-03T07:02:26.075Z,3.24
2022-12-03T07:04:54.554Z,3.27
2022-12-03T07:07:22.760Z,3.28
2022-12-03T07:09:50.553Z,3.30
2022-12-03T07:12:18.528Z,3.30
2022-12-03T07:14:46.767Z,3.27
2022-12-03T07:17:14.638Z,3.22
2022-12-03T07:19:43.629Z,3.19
2022-12-03T07:22:11.700Z,3.16
2022-12-03T07:24:39.673Z,3.16
2022-12-03T07:27:07.534Z,3.18
2022-12-03T07:29:35.509Z,3.21
2022-12-03T07:32:03.488Z,3.21
2022-12-03T07:34:31.299Z,3.25
2022-12-03T07:36:59.207Z,3.29
2022-12-03T07:39:27.073Z,3.32
2022-12-03T07:41:55.049Z,3.37
2022-12-03T07:44:23.119Z,3.39
2022-12-03T07:46:51.122Z,3.43
2022-12-03T07:49:19.368Z,3.44
2022-12-03T07:51:54.029Z,3.48
2022-12-03T07:54:22.169Z,3.50
2022-12-03T07:56:50.354Z,3.54
2022-12-03T07:59:18.861Z,3.58
2022-12-03T08:01:46.834Z,3.63
2022-12-03T08:04:19.162Z,3.72
2022-12-03T08:06:47.665Z,3.79
2022-12-03T08:09:16.297Z,3.87
2022-12-03T08:11:47.886Z,3.93
2022-12-03T08:14:17.493Z,3.97
2022-12-03T08:16:46.411Z,4.01
2022-12-03T08:19:15.475Z,4.07
2022-12-03T08:21:43.861Z,4.14
2022-12-03T08:24:14.796Z,4.23
2022-12-03T08:26:44.475Z,4.32
2022-12-03T08:29:13.911Z,4.41
2022-12-03T08:31:42.864Z,4.50
2022-12-03T08:34:25.452Z,4.58
2022-12-03T08:36:58.193Z,4.66
2022-12-03T08:39:26.061Z,4.73
2022-12-03T08:42:13.957Z,4.79
2022-12-03T08:44:42.615Z,4.86
2022-12-03T08:47:19.777Z,4.94
2022-12-03T08:49:51.734Z,5.02
2022-12-03T08:52:20.727Z,5.13
2022-12-03T08:54:53.184Z,5.24
2022-12-03T08:57:32.032Z,5.35
2022-12-03T09:00:12.588Z,5.47
2022-12-03T09:02:45.162Z,5.59
2022-12-03T09:05:18.941Z,5.76
2022-12-03T09:07:46.997Z,5.91
2022-12-03T09:10:15.531Z,6.06
2022-12-03T09:12:43.595Z,6.19
2022-12-03T09:15:11.668Z,6.31
2022-12-03T09:17:39.842Z,6.44
2022-12-03T09:20:08.427Z,6.57
2022-12-03T09:22:36.399Z,6.71
2022-12-03T09:25:04.467Z,6.83
2022-12-03T09:27:32.439Z,6.94
2022-12-03T09:30:00.615Z,7.07
2022-12-03T09:32:28.448Z,7.19
2022-12-03T09:34:56.907Z,7.34
2022-12-03T09:37:25.031Z,7.56
2022-12-03T09:39:53.009Z,7.91
2022-12-03T09:42:20.972Z,8.39
2022-12-03T09:44:48.856Z,8.85
2022-12-03T09:47:16.812Z,9.38
2022-12-03T09:49:44.874Z,9.77
2022-12-03T09:52:18.788Z,10.17
2022-12-03T09:54:47.724Z,10.58
2022-12-03T09:57:16.980Z,11.15
2022-12-03T09:59:45.359Z,11.78
2022-12-03T10:02:25.006Z,12.19
2022-12-03T10:04:53.579Z,12.54
2022-12-03T10:07:22.175Z,12.63
2022-12-03T10:09:50.307Z,12.60
2022-12-03T10:12:23.032Z,12.45
2022-12-03T10:14:51.866Z,12.28
2022-12-03T10:17:19.991Z,11.98
2022-12-03T10:19:49.595Z,11.66
2022-12-03T10:22:17.569Z,11.10
2022-12-03T10:24:45.636Z,10.66
2022-12-03T10:27:29.993Z,10.54
2022-12-03T10:29:59.352Z,10.35
2022-12-03T10:32:38.522Z,10.39
2022-12-03T10:35:08.337Z,10.40
2022-12-03T10:37:36.601Z,10.32
2022-12-03T10:40:10.956Z,10.17
2022-12-03T10:42:40.747Z,9.99
2022-12-03T10:45:09.025Z,9.82
2022-12-03T10:47:37.285Z,9.77
2022-12-03T10:50:06.765Z,9.64
2022-12-03T10:52:34.823Z,9.49
2022-12-03T10:55:02.848Z,9.18
2022-12-03T10:57:30.918Z,8.81
2022-12-03T10:59:58.784Z,8.61
2022-12-03T11:02:26.754Z,8.45
2022-12-03T11:04:55.239Z,8.37
2022-12-03T11:07:24.654Z,8.35
2022-12-03T11:09:55.473Z,8.27
2022-12-03T11:12:24.873Z,8.21
2022-12-03T11:14:54.216Z,8.16
2022-12-03T11:17:25.100Z,7.98
2022-12-03T11:19:53.001Z,7.81
2022-12-03T11:22:27.096Z,7.70
2022-12-03T11:25:14.083Z,7.53
2022-12-03T11:27:45.254Z,7.41
2022-12-03T11:30:13.229Z,7.28
2022-12-03T11:32:44.376Z,7.19
2022-12-03T11:35:13.363Z,7.12
2022-12-03T11:37:41.231Z,7.14
2022-12-03T11:40:18.111Z,7.15
2022-12-03T11:42:47.335Z,7.17
2022-12-03T11:45:17.327Z,7.21
2022-12-03T11:48:06.288Z,7.23
2022-12-03T11:50:39.765Z,7.31
2022-12-03T11:53:12.055Z,7.38
2022-12-03T11:55:47.401Z,7.40
2022-12-03T11:58:17.515Z,7.39
2022-12-03T12:00:49.747Z,7.38
2022-12-03T12:03:28.190Z,7.40
2022-12-03T12:06:03.649Z,7.40
2022-12-03T12:08:32.346Z,7.49
2022-12-03T12:11:00.411Z,7.55
2022-12-03T12:13:31.242Z,7.62
2022-12-03T12:16:00.174Z,7.63
2022-12-03T12:18:34.044Z,7.54
2022-12-03T12:21:20.754Z,7.36
2022-12-03T12:23:48.583Z,7.38
2022-12-03T12:26:16.590Z,7.36
2022-12-03T12:28:44.560Z,7.35
2022-12-03T12:31:12.503Z,7.37
2022-12-03T12:33:40.491Z,7.40
2022-12-03T12:36:09.359Z,7.47
2022-12-03T12:38:37.358Z,7.79
2022-12-03T12:41:08.210Z,8.11
2022-12-03T12:43:36.267Z,8.50
2022-12-03T12:46:39.113Z,8.92
2022-12-03T12:48:59.930Z,9.41
2022-12-03T12:51:28.124Z,9.80
2022-12-03T12:53:57.425Z,10.06
2022-12-03T12:56:27.251Z,10.06
2022-12-03T12:58:57.169Z,10.09
2022-12-03T13:01:26.265Z,10.24
2022-12-03T13:03:55.044Z,10.31
2022-12-03T13:06:25.884Z,10.17
2022-12-03T13:08:54.564Z,10.22
2022-12-03T13:11:22.353Z,10.03
2022-12-03T13:13:50.712Z,10.25
2022-12-03T13:16:20.147Z,10.29
2022-12-03T13:18:54.021Z,10.28
2022-12-03T13:21:23.626Z,10.21
2022-12-03T13:23:53.045Z,9.97
2022-12-03T13:26:34.581Z,9.73
2022-12-03T13:29:15.002Z,9.32
2022-12-03T13:31:49.047Z,9.06
2022-12-03T13:34:19.723Z,8.65
2022-12-03T13:36:53.539Z,8.44
2022-12-03T13:39:30.924Z,8.32
2022-12-03T13:42:26.647Z,8.16
2022-12-03T13:44:54.614Z,7.90
2022-12-03T13:47:23.302Z,7.65
2022-12-03T13:49:53.877Z,7.49
2022-12-03T13:52:23.940Z,7.34
2022-12-03T13:54:53.182Z,7.18
2022-12-03T13:57:23.265Z,7.04
2022-12-03T13:59:51.443Z,6.91
2022-12-03T14:02:19.734Z,6.81
2022-12-03T14:04:47.894Z,6.72
2022-12-03T14:07:15.757Z,6.63
2022-12-03T14:09:43.626Z,6.58
2022-12-03T14:12:26.852Z,6.48
2022-12-03T14:14:54.918Z,6.38
2022-12-03T14:17:22.888Z,6.34
2022-12-03T14:19:51.186Z,6.33
2022-12-03T14:22:23.352Z,6.30
2022-12-03T14:24:52.540Z,6.28
2022-12-03T14:27:21.014Z,6.24
2022-12-03T14:29:49.596Z,6.17
2022-12-03T14:32:18.033Z,6.13
2022-12-03T14:34:46.052Z,6.07
2022-12-03T14:37:13.919Z,6.00
2022-12-03T14:39:41.993Z,5.93
2022-12-03T14:42:16.916Z,5.85
2022-12-03T14:44:48.985Z,5.77
2022-12-03T14:47:18.390Z,5.69
2022-12-03T14:49:46.664Z,5.62
2022-12-03T14:52:14.836Z,5.57
2022-12-03T14:54:43.425Z,5.51
2022-12-03T14:57:15.588Z,5.46
2022-12-03T14:59:44.487Z,5.44
2022-12-03T15:02:12.947Z,5.42
2022-12-03T15:04:41.666Z,5.38
2022-12-03T15:07:09.491Z,5.34
2022-12-03T15:09:37.591Z,5.29
2022-12-03T15:12:05.669Z,5.25
2022-12-03T15:14:33.631Z,5.20
2022-12-03T15:17:01.613Z,5.17
2022-12-03T15:19:29.848Z,5.14
2022-12-03T15:21:57.686Z,5.10
2022-12-03T15:24:25.617Z,5.06
2022-12-03T15:26:53.695Z,5.02
2022-12-03T15:29:21.813Z,5.00
2022-12-03T15:31:49.754Z,4.99
2022-12-03T15:34:22.374Z,4.99
2022-12-03T15:36:51.282Z,5.00
2022-12-03T15:39:19.369Z,4.99
2022-12-03T15:41:47.129Z,4.98
2022-12-03T15:44:15.098Z,4.97
2022-12-03T15:46:43.149Z,4.96
2022-12-03T15:49:11.247Z,4.96
2022-12-03T15:51:39.216Z,4.97
2022-12-03T15:54:07.182Z,4.96
2022-12-03T15:56:37.830Z,4.98
2022-12-03T15:59:06.007Z,5.04
2022-12-03T16:01:33.991Z,5.09
2022-12-03T16:04:02.032Z,5.09
2022-12-03T16:06:30.004Z,5.10
2022-12-03T16:08:57.865Z,5.06
2022-12-03T16:11:25.838Z,5.02
2022-12-03T16:13:53.741Z,4.99
2022-12-03T16:16:21.807Z,4.95
2022-12-03T16:18:49.956Z,4.92
2022-12-03T16:21:21.930Z,4.91
2022-12-03T16:23:53.052Z,4.88
2022-12-03T16:26:21.229Z,4.81
2022-12-03T16:28:49.404Z,4.76
2022-12-03T16:31:19.090Z,4.71
2022-12-03T16:33:47.491Z,4.66
2022-12-03T16:36:15.563Z,4.60
2022-12-03T16:38:43.434Z,4.54
2022-12-03T16:41:11.419Z,4.50
2022-12-03T16:43:39.372Z,4.48
2022-12-03T16:46:26.563Z,4.46
2022-12-03T16:48:56.604Z,4.43
2022-12-03T16:51:26.641Z,4.40
2022-12-03T16:53:55.216Z,4.36
2022-12-03T16:56:23.179Z,4.32
2022-12-03T16:58:51.155Z,4.28
2022-12-03T17:01:19.349Z,4.26
2022-12-03T17:03:47.399Z,4.24
2022-12-03T17:06:15.570Z,4.23
2022-12-03T17:08:49.021Z,4.20
2022-12-03T17:11:18.267Z,4.19
2022-12-03T17:13:47.258Z,4.16
2022-12-03T17:16:16.044Z,4.15
2022-12-03T17:18:44.186Z,4.13
2022-12-03T17:21:12.099Z,4.11
2022-12-03T17:23:39.944Z,4.10
2022-12-03T17:26:07.730Z,4.09
2022-12-03T17:28:35.900Z,4.07
2022-12-03T17:31:04.037Z,4.07
2022-12-03T17:33:32.255Z,4.06
2022-12-03T17:36:00.323Z,4.06
2022-12-03T17:38:28.291Z,4.05
2022-12-03T17:40:56.259Z,4.05
2022-12-03T17:43:24.328Z,4.07
2022-12-03T17:45:52.207Z,4.08
2022-12-03T17:48:20.163Z,4.10
2022-12-03T17:50:48.953Z,4.11
2022-12-03T17:53:16.927Z,4.12
2022-12-03T17:55:47.147Z,4.12
2022-12-03T17:58:15.117Z,4.13
2022-12-03T18:00:43.086Z,4.15
2022-12-03T18:03:11.364Z,4.13
2022-12-03T18:05:39.438Z,4.12
2022-12-03T18:08:07.568Z,4.11
2022-12-03T18:10:35.577Z,4.11
2022-12-03T18:13:03.549Z,4.09
2022-12-03T18:15:32.229Z,4.07
2022-12-03T18:18:00.203Z,4.05
2022-12-03T18:20:28.143Z,4.05
2022-12-03T18:22:57.466Z,4.07
2022-12-03T18:25:26.362Z,4.07
2022-12-03T18:27:54.154Z,4.08
2022-12-03T18:30:22.422Z,4.07
2022-12-03T18:32:50.993Z,4.08
2022-12-03T18:35:20.087Z,4.05
2022-12-03T18:37:49.383Z,4.05
2022-12-03T18:40:22.801Z,4.03
2022-12-03T18:42:50.855Z,4.02
2022-12-03T18:45:19.230Z,4.03
2022-12-03T18:47:47.257Z,4.05
2022-12-03T18:50:15.482Z,4.08
2022-12-03T18:52:43.552Z,4.11
2022-12-03T18:55:16.642Z,4.13
2022-12-03T18:57:45.323Z,4.19
2022-12-03T19:00:14.087Z,4.26
2022-12-03T19:05:31.247Z,4.40
2022-12-03T19:07:59.203Z,4.46
2022-12-03T19:10:27.601Z,4.53
2022-12-03T19:12:55.566Z,4.61
2022-12-03T19:15:24.296Z,4.67
2022-12-03T19:17:52.225Z,4.73
2022-12-03T19:20:20.200Z,4.81
2022-12-03T19:22:48.033Z,4.88
2022-12-03T19:25:16.113Z,4.94
2022-12-03T19:27:44.114Z,4.97
2022-12-03T19:30:12.483Z,5.01
2022-12-03T19:32:40.557Z,5.05
2022-12-03T19:35:11.513Z,5.08
2022-12-03T19:37:39.669Z,5.12
2022-12-03T19:40:10.405Z,5.10
2022-12-03T19:42:39.190Z,5.05
2022-12-03T19:45:07.880Z,5.00
2022-12-03T19:47:36.562Z,4.95
2022-12-03T19:50:05.660Z,4.91
2022-12-03T19:52:34.770Z,4.88
2022-12-03T19:55:02.727Z,4.86
2022-12-03T19:57:30.592Z,4.83
2022-12-03T19:59:58.583Z,4.78
2022-12-03T20:02:26.562Z,4.73
2022-12-03T20:04:54.806Z,4.64
2022-12-03T20:07:22.669Z,4.57
2022-12-03T20:09:51.837Z,4.47
2022-12-03T20:12:19.939Z,4.39
2022-12-03T20:14:47.806Z,4.33
2022-12-03T20:17:15.675Z,4.26
2022-12-03T20:19:43.544Z,4.18
2022-12-03T20:22:11.546Z,4.05
2022-12-03T20:24:39.587Z,3.95
2022-12-03T20:27:07.941Z,3.88
2022-12-03T20:29:35.973Z,3.77
2022-12-03T20:32:05.261Z,3.61
2022-12-03T20:34:35.963Z,3.59
2022-12-03T20:37:04.071Z,3.57
2022-12-03T20:39:32.009Z,3.59
2022-12-03T20:41:59.976Z,3.54
2022-12-03T20:44:27.949Z,3.61
2022-12-03T20:46:55.802Z,3.57
2022-12-03T20:49:23.553Z,3.59
2022-12-03T20:51:51.649Z,3.61
2022-12-03T20:54:19.622Z,3.59
2022-12-03T20:56:47.485Z,3.60
2022-12-03T20:59:16.898Z,3.58
2022-12-03T21:01:45.258Z,3.54
2022-12-03T21:04:13.752Z,3.42
2022-12-03T21:06:42.457Z,3.37
2022-12-03T21:09:11.734Z,3.36
2022-12-03T21:11:42.608Z,3.25
2022-12-03T21:14:11.484Z,3.25
2022-12-03T21:17:06.451Z,3.18
2022-12-03T21:19:28.187Z,3.14
2022-12-03T21:21:56.035Z,3.16
2022-12-03T21:24:24.029Z,3.14
2022-12-03T21:26:51.993Z,3.02
2022-12-03T21:29:19.865Z,2.94
2022-12-03T21:31:47.836Z,2.83
2022-12-03T21:34:15.799Z,2.78
2022-12-03T21:36:43.878Z,2.85
2022-12-03T21:39:11.853Z,2.83
2022-12-03T21:41:39.812Z,2.86
2022-12-03T21:44:07.685Z,2.83
2022-12-03T21:47:11.972Z,2.91
2022-12-03T21:49:23.586Z,2.97
2022-12-03T21:51:51.448Z,3.00
2022-12-03T21:54:19.422Z,3.08
2022-12-03T21:56:47.394Z,3.17
2022-12-03T21:59:15.369Z,3.21
2022-12-03T22:01:47.158Z,3.30
2022-12-03T22:04:15.604Z,3.37
2022-12-03T22:06:43.576Z,3.41
2022-12-03T22:09:11.542Z,3.44
2022-12-03T22:11:39.407Z,3.45
2022-12-03T22:14:08.707Z,3.41
2022-12-03T22:16:36.656Z,3.33
2022-12-03T22:19:04.756Z,3.26
2022-12-03T22:21:33.032Z,3.27
2022-12-03T22:24:00.838Z,3.22
2022-12-03T22:26:28.660Z,3.20
2022-12-03T22:28:56.631Z,3.19
2022-12-03T22:31:24.653Z,3.17
2022-12-03T22:33:52.674Z,3.12
2022-12-03T22:36:21.759Z,3.13
2022-12-03T22:38:50.955Z,3.15
2022-12-03T22:41:19.868Z,3.17
2022-12-03T22:43:48.344Z,3.19
2022-12-03T22:46:16.461Z,3.20
2022-12-03T22:48:45.511Z,3.21
2022-12-03T22:51:14.985Z,3.21
2022-12-03T22:53:43.292Z,3.15
2022-12-03T22:56:11.363Z,3.09
2022-12-03T22:58:39.945Z,3.05
2022-12-03T23:01:08.224Z,3.03
2022-12-03T23:03:37.003Z,3.00
2022-12-03T23:06:11.600Z,2.93
2022-12-03T23:08:39.496Z,2.94
2022-12-03T23:11:08.088Z,2.95
2022-12-03T23:13:35.927Z,2.97
2022-12-03T23:16:04.320Z,3.00
2022-12-03T23:18:32.612Z,3.01
2022-12-03T23:21:00.578Z,3.01
2022-12-03T23:23:28.557Z,3.02
2022-12-03T23:26:07.370Z,3.04
2022-12-03T23:28:36.256Z,3.06
2022-12-03T23:31:05.203Z,3.07
2022-12-03T23:33:38.134Z,3.09
2022-12-03T23:36:06.827Z,3.11
2022-12-03T23:38:34.667Z,3.10
2022-12-03T23:41:06.674Z,3.12
2022-12-03T23:43:34.929Z,3.13
2022-12-03T23:46:10.233Z,3.14
2022-12-03T23:48:38.211Z,3.15
2022-12-03T23:51:09.898Z,3.17
2022-12-03T23:53:38.712Z,3.16
2022-12-03T23:56:11.677Z,3.11
2022-12-03T23:58:39.545Z,3.01
